sensor_id;sensor_type;location;lat;lon;timestamp;P1;durP1;ratioP1;P2;durP2;ratioP2
31746;SDS011;18319;48.974;8.462;2023-05-10T00:00:57;0.40;;;0.40;;
31746;SDS011;18319;48.974;8.462;2023-05-10T00:03:24;0.55;;;0.55;;
31746;SDS011;18319;48.974;8.462;2023-05-10T00:05:51;0.47;;;0.45;;
31746;SDS011;18319;48.974;8.462;2023-05-10T00:08:18;0.40;;;0.40;;
31746;SDS011;18319;48.974;8.462;2023-05-10T00:10:45;1.17;;;0.40;;
31746;SDS011;18319;48.974;8.462;2023-05-10T00:13:11;0.50;;;0.50;;
31746;SDS011;18319;48.974;8.462;2023-05-10T00:15:40;0.65;;;0.65;;
31746;SDS011;18319;48.974;8.462;2023-05-10T00:18:07;1.42;;;0.50;;
31746;SDS011;18319;48.974;8.462;2023-05-10T00:20:33;5.88;;;0.70;;
31746;SDS011;18319;48.974;8.462;2023-05-10T00:23:00;0.40;;;0.40;;
31746;SDS011;18319;48.974;8.462;2023-05-10T00:25:27;3.10;;;0.60;;
31746;SDS011;18319;48.974;8.462;2023-05-10T00:27:54;0.57;;;0.57;;
31746;SDS011;18319;48.974;8.462;2023-05-10T00:30:22;0.63;;;0.50;;
31746;SDS011;18319;48.974;8.462;2023-05-10T00:32:50;0.60;;;0.60;;
31746;SDS011;18319;48.974;8.462;2023-05-10T00:35:17;0.85;;;0.52;;
31746;SDS011;18319;48.974;8.462;2023-05-10T00:37:43;0.77;;;0.77;;
31746;SDS011;18319;48.974;8.462;2023-05-10T00:40:11;1.85;;;0.68;;
31746;SDS011;18319;48.974;8.462;2023-05-10T00:42:38;1.60;;;0.60;;
31746;SDS011;18319;48.974;8.462;2023-05-10T00:45:05;0.50;;;0.50;;
31746;SDS011;18319;48.974;8.462;2023-05-10T00:47:33;0.55;;;0.50;;
31746;SDS011;18319;48.974;8.462;2023-05-10T00:50:02;0.70;;;0.70;;
31746;SDS011;18319;48.974;8.462;2023-05-10T00:52:30;0.70;;;0.70;;
31746;SDS011;18319;48.974;8.462;2023-05-10T00:54:57;0.80;;;0.80;;
31746;SDS011;18319;48.974;8.462;2023-05-10T00:57:24;0.60;;;0.60;;
31746;SDS011;18319;48.974;8.462;2023-05-10T00:59:51;0.60;;;0.60;;
31746;SDS011;18319;48.974;8.462;2023-05-10T01:02:18;0.90;;;0.90;;
31746;SDS011;18319;48.974;8.462;2023-05-10T01:04:44;0.75;;;0.75;;
31746;SDS011;18319;48.974;8.462;2023-05-10T01:07:13;2.05;;;1.02;;
31746;SDS011;18319;48.974;8.462;2023-05-10T01:09:40;5.43;;;0.85;;
31746;SDS011;18319;48.974;8.462;2023-05-10T01:12:07;1.90;;;1.15;;
31746;SDS011;18319;48.974;8.462;2023-05-10T01:14:34;1.40;;;1.30;;
31746;SDS011;18319;48.974;8.462;2023-05-10T01:17:02;0.95;;;0.95;;
31746;SDS011;18319;48.974;8.462;2023-05-10T01:19:29;1.10;;;1.02;;
31746;SDS011;18319;48.974;8.462;2023-05-10T01:22:02;1.20;;;1.20;;
31746;SDS011;18319;48.974;8.462;2023-05-10T01:24:42;1.40;;;1.25;;
31746;SDS011;18319;48.974;8.462;2023-05-10T01:27:33;1.60;;;1.50;;
31746;SDS011;18319;48.974;8.462;2023-05-10T01:30:35;1.35;;;1.25;;
31746;SDS011;18319;48.974;8.462;2023-05-10T01:33:31;1.05;;;1.05;;
31746;SDS011;18319;48.974;8.462;2023-05-10T01:36:03;1.52;;;1.40;;
31746;SDS011;18319;48.974;8.462;2023-05-10T01:38:33;5.88;;;1.52;;
31746;SDS011;18319;48.974;8.462;2023-05-10T01:41:08;2.25;;;1.10;;
31746;SDS011;18319;48.974;8.462;2023-05-10T01:43:43;1.35;;;1.25;;
31746;SDS011;18319;48.974;8.462;2023-05-10T01:46:17;1.33;;;1.25;;
31746;SDS011;18319;48.974;8.462;2023-05-10T01:48:52;2.08;;;1.25;;
31746;SDS011;18319;48.974;8.462;2023-05-10T01:51:23;1.30;;;1.20;;
31746;SDS011;18319;48.974;8.462;2023-05-10T01:53:54;1.70;;;1.23;;
31746;SDS011;18319;48.974;8.462;2023-05-10T01:56:26;2.13;;;1.23;;
31746;SDS011;18319;48.974;8.462;2023-05-10T01:58:56;1.92;;;1.45;;
31746;SDS011;18319;48.974;8.462;2023-05-10T02:01:25;1.55;;;1.45;;
31746;SDS011;18319;48.974;8.462;2023-05-10T02:03:54;1.80;;;1.55;;
31746;SDS011;18319;48.974;8.462;2023-05-10T02:06:23;2.28;;;1.45;;
31746;SDS011;18319;48.974;8.462;2023-05-10T02:08:51;1.00;;;1.00;;
31746;SDS011;18319;48.974;8.462;2023-05-10T02:11:19;3.08;;;1.55;;
31746;SDS011;18319;48.974;8.462;2023-05-10T02:13:48;1.60;;;1.50;;
31746;SDS011;18319;48.974;8.462;2023-05-10T02:16:16;1.25;;;1.25;;
31746;SDS011;18319;48.974;8.462;2023-05-10T02:18:47;1.88;;;1.52;;
31746;SDS011;18319;48.974;8.462;2023-05-10T02:21:17;1.35;;;1.25;;
31746;SDS011;18319;48.974;8.462;2023-05-10T02:23:45;1.98;;;1.88;;
31746;SDS011;18319;48.974;8.462;2023-05-10T02:26:12;1.75;;;1.65;;
31746;SDS011;18319;48.974;8.462;2023-05-10T02:28:41;1.48;;;1.48;;
31746;SDS011;18319;48.974;8.462;2023-05-10T02:31:09;1.85;;;1.75;;
31746;SDS011;18319;48.974;8.462;2023-05-10T02:33:36;2.28;;;1.67;;
31746;SDS011;18319;48.974;8.462;2023-05-10T02:36:06;1.70;;;1.60;;
31746;SDS011;18319;48.974;8.462;2023-05-10T02:38:36;2.67;;;1.80;;
31746;SDS011;18319;48.974;8.462;2023-05-10T02:41:03;2.28;;;1.80;;
31746;SDS011;18319;48.974;8.462;2023-05-10T02:43:31;1.67;;;1.58;;
31746;SDS011;18319;48.974;8.462;2023-05-10T02:45:59;1.77;;;1.67;;
31746;SDS011;18319;48.974;8.462;2023-05-10T02:48:26;3.45;;;1.92;;
31746;SDS011;18319;48.974;8.462;2023-05-10T02:50:53;2.88;;;2.10;;
31746;SDS011;18319;48.974;8.462;2023-05-10T02:53:22;2.42;;;2.33;;
31746;SDS011;18319;48.974;8.462;2023-05-10T02:56:01;2.53;;;2.30;;
31746;SDS011;18319;48.974;8.462;2023-05-10T02:58:32;2.13;;;2.03;;
31746;SDS011;18319;48.974;8.462;2023-05-10T03:00:59;2.22;;;2.13;;
31746;SDS011;18319;48.974;8.462;2023-05-10T03:03:26;3.80;;;2.42;;
31746;SDS011;18319;48.974;8.462;2023-05-10T03:05:53;2.50;;;2.30;;
31746;SDS011;18319;48.974;8.462;2023-05-10T03:08:20;2.10;;;2.00;;
31746;SDS011;18319;48.974;8.462;2023-05-10T03:10:51;2.45;;;2.35;;
31746;SDS011;18319;48.974;8.462;2023-05-10T03:13:28;2.33;;;2.22;;
31746;SDS011;18319;48.974;8.462;2023-05-10T03:16:03;2.13;;;2.03;;
31746;SDS011;18319;48.974;8.462;2023-05-10T03:18:37;2.30;;;2.20;;
31746;SDS011;18319;48.974;8.462;2023-05-10T03:21:09;2.80;;;2.60;;
31746;SDS011;18319;48.974;8.462;2023-05-10T03:23:40;2.38;;;2.22;;
31746;SDS011;18319;48.974;8.462;2023-05-10T03:26:09;2.25;;;2.15;;
31746;SDS011;18319;48.974;8.462;2023-05-10T03:28:43;2.40;;;2.30;;
31746;SDS011;18319;48.974;8.462;2023-05-10T03:31:10;2.20;;;2.10;;
31746;SDS011;18319;48.974;8.462;2023-05-10T03:33:45;2.50;;;2.30;;
31746;SDS011;18319;48.974;8.462;2023-05-10T03:36:12;2.88;;;2.67;;
31746;SDS011;18319;48.974;8.462;2023-05-10T03:38:39;4.25;;;2.00;;
31746;SDS011;18319;48.974;8.462;2023-05-10T03:41:06;2.20;;;2.10;;
31746;SDS011;18319;48.974;8.462;2023-05-10T03:43:32;2.75;;;2.28;;
31746;SDS011;18319;48.974;8.462;2023-05-10T03:46:02;2.50;;;2.40;;
31746;SDS011;18319;48.974;8.462;2023-05-10T03:48:29;2.28;;;2.15;;
31746;SDS011;18319;48.974;8.462;2023-05-10T03:50:56;1.92;;;1.83;;
31746;SDS011;18319;48.974;8.462;2023-05-10T03:53:23;1.80;;;1.70;;
31746;SDS011;18319;48.974;8.462;2023-05-10T03:55:50;2.05;;;1.95;;
31746;SDS011;18319;48.974;8.462;2023-05-10T03:58:17;2.50;;;2.40;;
31746;SDS011;18319;48.974;8.462;2023-05-10T04:00:44;3.72;;;1.77;;
31746;SDS011;18319;48.974;8.462;2023-05-10T04:03:12;2.22;;;2.13;;
31746;SDS011;18319;48.974;8.462;2023-05-10T04:05:39;1.60;;;1.50;;
31746;SDS011;18319;48.974;8.462;2023-05-10T04:08:06;1.98;;;1.88;;
31746;SDS011;18319;48.974;8.462;2023-05-10T04:10:33;3.83;;;2.00;;
31746;SDS011;18319;48.974;8.462;2023-05-10T04:13:00;2.47;;;2.08;;
31746;SDS011;18319;48.974;8.462;2023-05-10T04:15:26;1.75;;;1.65;;
31746;SDS011;18319;48.974;8.462;2023-05-10T04:17:53;3.00;;;2.05;;
31746;SDS011;18319;48.974;8.462;2023-05-10T04:20:21;1.80;;;1.70;;
31746;SDS011;18319;48.974;8.462;2023-05-10T04:22:48;2.22;;;1.77;;
31746;SDS011;18319;48.974;8.462;2023-05-10T04:25:15;1.80;;;1.70;;
31746;SDS011;18319;48.974;8.462;2023-05-10T04:27:42;1.75;;;1.65;;
31746;SDS011;18319;48.974;8.462;2023-05-10T04:30:09;2.88;;;2.25;;
31746;SDS011;18319;48.974;8.462;2023-05-10T04:32:36;2.13;;;2.03;;
31746;SDS011;18319;48.974;8.462;2023-05-10T04:35:03;1.90;;;1.80;;
31746;SDS011;18319;48.974;8.462;2023-05-10T04:37:31;2.00;;;1.77;;
31746;SDS011;18319;48.974;8.462;2023-05-10T04:39:58;2.80;;;1.85;;
31746;SDS011;18319;48.974;8.462;2023-05-10T04:42:25;2.22;;;1.58;;
31746;SDS011;18319;48.974;8.462;2023-05-10T04:44:52;2.13;;;1.70;;
31746;SDS011;18319;48.974;8.462;2023-05-10T04:47:19;2.78;;;1.63;;
31746;SDS011;18319;48.974;8.462;2023-05-10T04:49:46;1.73;;;1.63;;
31746;SDS011;18319;48.974;8.462;2023-05-10T04:52:13;2.20;;;1.83;;
31746;SDS011;18319;48.974;8.462;2023-05-10T04:54:43;2.58;;;2.10;;
31746;SDS011;18319;48.974;8.462;2023-05-10T04:57:10;2.72;;;2.22;;
31746;SDS011;18319;48.974;8.462;2023-05-10T04:59:37;2.42;;;2.25;;
31746;SDS011;18319;48.974;8.462;2023-05-10T05:02:04;2.50;;;2.30;;
31746;SDS011;18319;48.974;8.462;2023-05-10T05:04:31;2.53;;;2.38;;
31746;SDS011;18319;48.974;8.462;2023-05-10T05:06:58;1.73;;;1.63;;
31746;SDS011;18319;48.974;8.462;2023-05-10T05:09:25;2.45;;;2.30;;
31746;SDS011;18319;48.974;8.462;2023-05-10T05:11:53;2.25;;;2.15;;
31746;SDS011;18319;48.974;8.462;2023-05-10T05:14:20;1.88;;;1.77;;
31746;SDS011;18319;48.974;8.462;2023-05-10T05:16:46;2.20;;;2.10;;
31746;SDS011;18319;48.974;8.462;2023-05-10T05:19:13;2.60;;;2.40;;
31746;SDS011;18319;48.974;8.462;2023-05-10T05:21:40;2.15;;;2.05;;
31746;SDS011;18319;48.974;8.462;2023-05-10T05:24:07;2.17;;;2.08;;
31746;SDS011;18319;48.974;8.462;2023-05-10T05:26:35;3.90;;;2.28;;
31746;SDS011;18319;48.974;8.462;2023-05-10T05:29:03;4.63;;;2.05;;
31746;SDS011;18319;48.974;8.462;2023-05-10T05:31:30;2.13;;;2.00;;
31746;SDS011;18319;48.974;8.462;2023-05-10T05:33:57;2.00;;;1.90;;
31746;SDS011;18319;48.974;8.462;2023-05-10T05:36:24;2.20;;;2.10;;
31746;SDS011;18319;48.974;8.462;2023-05-10T05:38:51;1.90;;;1.80;;
31746;SDS011;18319;48.974;8.462;2023-05-10T05:41:17;1.63;;;1.55;;
31746;SDS011;18319;48.974;8.462;2023-05-10T05:43:44;2.20;;;2.10;;
31746;SDS011;18319;48.974;8.462;2023-05-10T05:46:13;1.90;;;1.80;;
31746;SDS011;18319;48.974;8.462;2023-05-10T05:48:39;2.50;;;1.90;;
31746;SDS011;18319;48.974;8.462;2023-05-10T05:51:06;1.60;;;1.50;;
31746;SDS011;18319;48.974;8.462;2023-05-10T05:53:33;1.77;;;1.67;;
31746;SDS011;18319;48.974;8.462;2023-05-10T05:55:59;1.75;;;1.30;;
31746;SDS011;18319;48.974;8.462;2023-05-10T05:58:26;1.50;;;1.50;;
31746;SDS011;18319;48.974;8.462;2023-05-10T06:00:53;1.10;;;1.00;;
31746;SDS011;18319;48.974;8.462;2023-05-10T06:03:21;1.52;;;1.42;;
31746;SDS011;18319;48.974;8.462;2023-05-10T06:05:48;1.98;;;1.77;;
31746;SDS011;18319;48.974;8.462;2023-05-10T06:08:15;1.40;;;1.40;;
31746;SDS011;18319;48.974;8.462;2023-05-10T06:10:41;2.30;;;2.13;;
31746;SDS011;18319;48.974;8.462;2023-05-10T06:13:09;2.85;;;1.50;;
31746;SDS011;18319;48.974;8.462;2023-05-10T06:15:36;4.32;;;1.42;;
31746;SDS011;18319;48.974;8.462;2023-05-10T06:18:03;1.02;;;1.02;;
31746;SDS011;18319;48.974;8.462;2023-05-10T06:20:32;4.88;;;1.48;;
31746;SDS011;18319;48.974;8.462;2023-05-10T06:22:58;2.17;;;1.95;;
31746;SDS011;18319;48.974;8.462;2023-05-10T06:25:25;2.25;;;1.50;;
31746;SDS011;18319;48.974;8.462;2023-05-10T06:27:52;1.15;;;1.15;;
31746;SDS011;18319;48.974;8.462;2023-05-10T06:30:22;1.40;;;1.38;;
31746;SDS011;18319;48.974;8.462;2023-05-10T06:32:52;1.45;;;1.35;;
31746;SDS011;18319;48.974;8.462;2023-05-10T06:35:19;2.97;;;1.52;;
31746;SDS011;18319;48.974;8.462;2023-05-10T06:37:47;1.35;;;1.35;;
31746;SDS011;18319;48.974;8.462;2023-05-10T06:40:14;1.98;;;1.88;;
31746;SDS011;18319;48.974;8.462;2023-05-10T06:42:41;2.53;;;1.48;;
31746;SDS011;18319;48.974;8.462;2023-05-10T06:45:10;1.38;;;1.20;;
31746;SDS011;18319;48.974;8.462;2023-05-10T06:47:37;2.10;;;1.63;;
31746;SDS011;18319;48.974;8.462;2023-05-10T06:50:04;1.20;;;1.10;;
31746;SDS011;18319;48.974;8.462;2023-05-10T06:52:31;1.83;;;1.10;;
31746;SDS011;18319;48.974;8.462;2023-05-10T06:54:59;3.28;;;1.27;;
31746;SDS011;18319;48.974;8.462;2023-05-10T06:57:27;1.38;;;1.27;;
31746;SDS011;18319;48.974;8.462;2023-05-10T06:59:53;2.33;;;1.27;;
31746;SDS011;18319;48.974;8.462;2023-05-10T07:02:21;1.65;;;1.00;;
31746;SDS011;18319;48.974;8.462;2023-05-10T07:04:47;3.30;;;0.85;;
31746;SDS011;18319;48.974;8.462;2023-05-10T07:07:15;0.82;;;0.82;;
31746;SDS011;18319;48.974;8.462;2023-05-10T07:09:41;1.13;;;0.95;;
31746;SDS011;18319;48.974;8.462;2023-05-10T07:12:09;1.13;;;1.13;;
31746;SDS011;18319;48.974;8.462;2023-05-10T07:14:36;1.88;;;1.17;;
31746;SDS011;18319;48.974;8.462;2023-05-10T07:17:03;2.05;;;1.10;;
31746;SDS011;18319;48.974;8.462;2023-05-10T07:19:30;1.42;;;0.82;;
31746;SDS011;18319;48.974;8.462;2023-05-10T07:21:57;0.93;;;0.90;;
31746;SDS011;18319;48.974;8.462;2023-05-10T07:24:24;1.45;;;0.90;;
31746;SDS011;18319;48.974;8.462;2023-05-10T07:26:51;3.35;;;1.60;;
31746;SDS011;18319;48.974;8.462;2023-05-10T07:29:19;0.63;;;0.63;;
31746;SDS011;18319;48.974;8.462;2023-05-10T07:31:46;1.45;;;0.63;;
31746;SDS011;18319;48.974;8.462;2023-05-10T07:34:13;2.40;;;1.00;;
31746;SDS011;18319;48.974;8.462;2023-05-10T07:36:39;1.02;;;0.95;;
31746;SDS011;18319;48.974;8.462;2023-05-10T07:39:06;0.95;;;0.90;;
31746;SDS011;18319;48.974;8.462;2023-05-10T07:41:33;1.08;;;0.70;;
31746;SDS011;18319;48.974;8.462;2023-05-10T07:44:00;0.70;;;0.70;;
31746;SDS011;18319;48.974;8.462;2023-05-10T07:46:28;0.60;;;0.60;;
31746;SDS011;18319;48.974;8.462;2023-05-10T07:48:55;0.70;;;0.70;;
31746;SDS011;18319;48.974;8.462;2023-05-10T07:51:22;0.52;;;0.40;;
31746;SDS011;18319;48.974;8.462;2023-05-10T07:53:48;1.05;;;1.00;;
31746;SDS011;18319;48.974;8.462;2023-05-10T07:56:22;0.68;;;0.50;;
31746;SDS011;18319;48.974;8.462;2023-05-10T07:58:52;0.98;;;0.70;;
31746;SDS011;18319;48.974;8.462;2023-05-10T08:01:19;3.28;;;0.77;;
31746;SDS011;18319;48.974;8.462;2023-05-10T08:03:47;5.00;;;1.48;;
31746;SDS011;18319;48.974;8.462;2023-05-10T08:06:16;1.58;;;0.60;;
31746;SDS011;18319;48.974;8.462;2023-05-10T08:08:43;1.77;;;0.77;;
31746;SDS011;18319;48.974;8.462;2023-05-10T08:11:14;0.50;;;0.50;;
31746;SDS011;18319;48.974;8.462;2023-05-10T08:13:41;5.80;;;1.13;;
31746;SDS011;18319;48.974;8.462;2023-05-10T08:16:07;0.65;;;0.65;;
31746;SDS011;18319;48.974;8.462;2023-05-10T08:18:34;1.13;;;0.40;;
31746;SDS011;18319;48.974;8.462;2023-05-10T08:21:02;0.63;;;0.63;;
31746;SDS011;18319;48.974;8.462;2023-05-10T08:23:29;0.65;;;0.65;;
31746;SDS011;18319;48.974;8.462;2023-05-10T08:25:56;0.38;;;0.38;;
31746;SDS011;18319;48.974;8.462;2023-05-10T08:28:23;1.58;;;0.55;;
31746;SDS011;18319;48.974;8.462;2023-05-10T08:30:50;1.08;;;0.70;;
31746;SDS011;18319;48.974;8.462;2023-05-10T08:33:17;3.00;;;0.90;;
31746;SDS011;18319;48.974;8.462;2023-05-10T08:35:44;2.95;;;0.40;;
31746;SDS011;18319;48.974;8.462;2023-05-10T08:38:12;1.50;;;0.70;;
31746;SDS011;18319;48.974;8.462;2023-05-10T08:40:39;0.57;;;0.30;;
31746;SDS011;18319;48.974;8.462;2023-05-10T08:43:09;3.53;;;0.65;;
31746;SDS011;18319;48.974;8.462;2023-05-10T08:45:37;1.23;;;0.50;;
31746;SDS011;18319;48.974;8.462;2023-05-10T08:48:05;1.23;;;0.40;;
31746;SDS011;18319;48.974;8.462;2023-05-10T08:50:33;0.50;;;0.50;;
31746;SDS011;18319;48.974;8.462;2023-05-10T08:53:03;0.50;;;0.50;;
31746;SDS011;18319;48.974;8.462;2023-05-10T08:55:33;1.20;;;0.45;;
31746;SDS011;18319;48.974;8.462;2023-05-10T08:58:01;1.70;;;0.40;;
31746;SDS011;18319;48.974;8.462;2023-05-10T09:00:28;0.50;;;0.40;;
31746;SDS011;18319;48.974;8.462;2023-05-10T09:02:55;0.40;;;0.40;;
31746;SDS011;18319;48.974;8.462;2023-05-10T09:05:23;0.40;;;0.30;;
31746;SDS011;18319;48.974;8.462;2023-05-10T09:07:50;1.63;;;0.30;;
31746;SDS011;18319;48.974;8.462;2023-05-10T09:10:18;0.68;;;0.40;;
31746;SDS011;18319;48.974;8.462;2023-05-10T09:12:47;0.47;;;0.32;;
31746;SDS011;18319;48.974;8.462;2023-05-10T09:15:14;0.30;;;0.30;;
31746;SDS011;18319;48.974;8.462;2023-05-10T09:17:44;0.40;;;0.40;;
31746;SDS011;18319;48.974;8.462;2023-05-10T09:20:11;2.78;;;0.45;;
31746;SDS011;18319;48.974;8.462;2023-05-10T09:22:38;2.35;;;0.60;;
31746;SDS011;18319;48.974;8.462;2023-05-10T09:25:06;0.52;;;0.45;;
31746;SDS011;18319;48.974;8.462;2023-05-10T09:27:34;22.48;;;2.10;;
31746;SDS011;18319;48.974;8.462;2023-05-10T09:30:03;0.43;;;0.40;;
31746;SDS011;18319;48.974;8.462;2023-05-10T09:32:38;3.58;;;0.52;;
31746;SDS011;18319;48.974;8.462;2023-05-10T09:35:06;0.75;;;0.30;;
31746;SDS011;18319;48.974;8.462;2023-05-10T09:37:34;1.90;;;0.40;;
31746;SDS011;18319;48.974;8.462;2023-05-10T09:40:03;1.90;;;0.40;;
31746;SDS011;18319;48.974;8.462;2023-05-10T09:42:31;0.88;;;0.68;;
31746;SDS011;18319;48.974;8.462;2023-05-10T09:44:59;0.40;;;0.40;;
31746;SDS011;18319;48.974;8.462;2023-05-10T09:47:29;0.90;;;0.65;;
31746;SDS011;18319;48.974;8.462;2023-05-10T09:49:57;0.70;;;0.50;;
31746;SDS011;18319;48.974;8.462;2023-05-10T09:52:28;0.90;;;0.60;;
31746;SDS011;18319;48.974;8.462;2023-05-10T09:54:55;1.08;;;0.63;;
31746;SDS011;18319;48.974;8.462;2023-05-10T09:57:22;0.70;;;0.60;;
31746;SDS011;18319;48.974;8.462;2023-05-10T09:59:50;0.70;;;0.70;;
31746;SDS011;18319;48.974;8.462;2023-05-10T10:02:20;1.27;;;0.55;;
31746;SDS011;18319;48.974;8.462;2023-05-10T10:04:54;0.70;;;0.70;;
31746;SDS011;18319;48.974;8.462;2023-05-10T10:07:22;0.60;;;0.60;;
31746;SDS011;18319;48.974;8.462;2023-05-10T10:09:50;0.50;;;0.50;;
31746;SDS011;18319;48.974;8.462;2023-05-10T10:12:17;2.13;;;0.90;;
31746;SDS011;18319;48.974;8.462;2023-05-10T10:14:45;2.92;;;0.70;;
31746;SDS011;18319;48.974;8.462;2023-05-10T10:17:14;1.42;;;0.80;;
31746;SDS011;18319;48.974;8.462;2023-05-10T10:19:43;0.50;;;0.50;;
31746;SDS011;18319;48.974;8.462;2023-05-10T10:22:11;0.70;;;0.70;;
31746;SDS011;18319;48.974;8.462;2023-05-10T10:24:37;0.60;;;0.60;;
31746;SDS011;18319;48.974;8.462;2023-05-10T10:27:11;1.75;;;0.80;;
31746;SDS011;18319;48.974;8.462;2023-05-10T10:29:47;1.15;;;0.60;;
31746;SDS011;18319;48.974;8.462;2023-05-10T10:32:26;0.75;;;0.75;;
31746;SDS011;18319;48.974;8.462;2023-05-10T10:35:00;3.83;;;0.93;;
31746;SDS011;18319;48.974;8.462;2023-05-10T10:37:40;1.73;;;1.10;;
31746;SDS011;18319;48.974;8.462;2023-05-10T10:40:22;1.17;;;0.80;;
31746;SDS011;18319;48.974;8.462;2023-05-10T10:42:53;1.10;;;1.00;;
31746;SDS011;18319;48.974;8.462;2023-05-10T10:45:21;1.08;;;1.05;;
31746;SDS011;18319;48.974;8.462;2023-05-10T10:47:48;2.78;;;1.33;;
31746;SDS011;18319;48.974;8.462;2023-05-10T10:50:20;3.20;;;1.55;;
31746;SDS011;18319;48.974;8.462;2023-05-10T10:52:47;1.50;;;1.40;;
31746;SDS011;18319;48.974;8.462;2023-05-10T10:55:17;1.55;;;1.45;;
31746;SDS011;18319;48.974;8.462;2023-05-10T10:57:47;3.47;;;1.95;;
31746;SDS011;18319;48.974;8.462;2023-05-10T11:00:23;1.38;;;1.25;;
31746;SDS011;18319;48.974;8.462;2023-05-10T11:02:52;2.78;;;1.30;;
31746;SDS011;18319;48.974;8.462;2023-05-10T11:05:34;1.42;;;1.33;;
31746;SDS011;18319;48.974;8.462;2023-05-10T11:08:09;1.45;;;1.27;;
31746;SDS011;18319;48.974;8.462;2023-05-10T11:10:48;3.58;;;1.27;;
31746;SDS011;18319;48.974;8.462;2023-05-10T11:13:28;2.17;;;1.08;;
31746;SDS011;18319;48.974;8.462;2023-05-10T11:15:56;0.98;;;0.98;;
31746;SDS011;18319;48.974;8.462;2023-05-10T11:18:25;1.25;;;1.15;;
31746;SDS011;18319;48.974;8.462;2023-05-10T11:20:57;1.50;;;0.90;;
31746;SDS011;18319;48.974;8.462;2023-05-10T11:23:29;0.90;;;0.70;;
31746;SDS011;18319;48.974;8.462;2023-05-10T11:25:56;0.68;;;0.68;;
31746;SDS011;18319;48.974;8.462;2023-05-10T11:28:23;3.08;;;1.00;;
31746;SDS011;18319;48.974;8.462;2023-05-10T11:30:51;1.60;;;0.70;;
31746;SDS011;18319;48.974;8.462;2023-05-10T11:33:19;1.85;;;0.80;;
31746;SDS011;18319;48.974;8.462;2023-05-10T11:35:46;1.77;;;0.85;;
31746;SDS011;18319;48.974;8.462;2023-05-10T11:38:14;1.45;;;0.75;;
31746;SDS011;18319;48.974;8.462;2023-05-10T11:40:41;0.73;;;0.73;;
31746;SDS011;18319;48.974;8.462;2023-05-10T11:43:08;2.20;;;0.80;;
31746;SDS011;18319;48.974;8.462;2023-05-10T11:45:37;0.85;;;0.70;;
31746;SDS011;18319;48.974;8.462;2023-05-10T11:48:04;0.68;;;0.60;;
31746;SDS011;18319;48.974;8.462;2023-05-10T11:50:31;0.85;;;0.70;;
31746;SDS011;18319;48.974;8.462;2023-05-10T11:52:58;0.85;;;0.45;;
31746;SDS011;18319;48.974;8.462;2023-05-10T11:55:26;1.27;;;0.80;;
31746;SDS011;18319;48.974;8.462;2023-05-10T11:57:55;2.55;;;0.77;;
31746;SDS011;18319;48.974;8.462;2023-05-10T12:00:26;3.75;;;0.50;;
31746;SDS011;18319;48.974;8.462;2023-05-10T12:02:52;3.40;;;0.88;;
31746;SDS011;18319;48.974;8.462;2023-05-10T12:05:19;2.45;;;0.82;;
31746;SDS011;18319;48.974;8.462;2023-05-10T12:07:46;3.03;;;0.60;;
31746;SDS011;18319;48.974;8.462;2023-05-10T12:10:13;1.23;;;0.52;;
31746;SDS011;18319;48.974;8.462;2023-05-10T12:12:43;3.80;;;0.57;;
31746;SDS011;18319;48.974;8.462;2023-05-10T12:15:11;1.13;;;0.45;;
31746;SDS011;18319;48.974;8.462;2023-05-10T12:17:43;0.30;;;0.30;;
31746;SDS011;18319;48.974;8.462;2023-05-10T12:20:14;3.13;;;0.65;;
31746;SDS011;18319;48.974;8.462;2023-05-10T12:22:43;0.55;;;0.32;;
31746;SDS011;18319;48.974;8.462;2023-05-10T12:25:11;1.85;;;0.63;;
31746;SDS011;18319;48.974;8.462;2023-05-10T12:27:38;1.20;;;0.47;;
31746;SDS011;18319;48.974;8.462;2023-05-10T12:30:06;3.63;;;0.60;;
31746;SDS011;18319;48.974;8.462;2023-05-10T12:32:37;2.67;;;0.60;;
31746;SDS011;18319;48.974;8.462;2023-05-10T12:35:05;4.40;;;0.50;;
31746;SDS011;18319;48.974;8.462;2023-05-10T12:37:32;0.80;;;0.43;;
31746;SDS011;18319;48.974;8.462;2023-05-10T12:40:04;1.63;;;0.65;;
31746;SDS011;18319;48.974;8.462;2023-05-10T12:42:33;0.85;;;0.30;;
31746;SDS011;18319;48.974;8.462;2023-05-10T12:45:00;0.25;;;0.25;;
31746;SDS011;18319;48.974;8.462;2023-05-10T12:47:28;0.95;;;0.73;;
31746;SDS011;18319;48.974;8.462;2023-05-10T12:49:55;0.40;;;0.35;;
31746;SDS011;18319;48.974;8.462;2023-05-10T12:52:22;0.50;;;0.50;;
31746;SDS011;18319;48.974;8.462;2023-05-10T12:54:49;3.33;;;0.50;;
31746;SDS011;18319;48.974;8.462;2023-05-10T12:57:16;0.45;;;0.43;;
31746;SDS011;18319;48.974;8.462;2023-05-10T12:59:43;0.65;;;0.40;;
31746;SDS011;18319;48.974;8.462;2023-05-10T13:02:10;1.35;;;0.52;;
31746;SDS011;18319;48.974;8.462;2023-05-10T13:04:38;1.27;;;0.55;;
31746;SDS011;18319;48.974;8.462;2023-05-10T13:07:05;0.55;;;0.55;;
31746;SDS011;18319;48.974;8.462;2023-05-10T13:09:32;1.38;;;1.27;;
31746;SDS011;18319;48.974;8.462;2023-05-10T13:11:59;13.85;;;1.20;;
31746;SDS011;18319;48.974;8.462;2023-05-10T13:14:26;1.67;;;0.77;;
31746;SDS011;18319;48.974;8.462;2023-05-10T13:16:52;1.10;;;0.70;;
31746;SDS011;18319;48.974;8.462;2023-05-10T13:19:19;0.70;;;0.57;;
31746;SDS011;18319;48.974;8.462;2023-05-10T13:21:47;1.17;;;0.50;;
31746;SDS011;18319;48.974;8.462;2023-05-10T13:24:14;0.57;;;0.57;;
31746;SDS011;18319;48.974;8.462;2023-05-10T13:26:42;4.05;;;0.93;;
31746;SDS011;18319;48.974;8.462;2023-05-10T13:29:09;0.40;;;0.40;;
31746;SDS011;18319;48.974;8.462;2023-05-10T13:31:36;1.52;;;0.60;;
31746;SDS011;18319;48.974;8.462;2023-05-10T13:34:03;0.50;;;0.50;;
31746;SDS011;18319;48.974;8.462;2023-05-10T13:36:31;1.23;;;0.77;;
31746;SDS011;18319;48.974;8.462;2023-05-10T13:38:59;2.58;;;0.60;;
31746;SDS011;18319;48.974;8.462;2023-05-10T13:41:28;1.35;;;0.43;;
31746;SDS011;18319;48.974;8.462;2023-05-10T13:43:55;3.97;;;0.63;;
31746;SDS011;18319;48.974;8.462;2023-05-10T13:46:21;2.63;;;0.60;;
31746;SDS011;18319;48.974;8.462;2023-05-10T13:48:48;1.05;;;0.30;;
31746;SDS011;18319;48.974;8.462;2023-05-10T13:51:15;1.48;;;0.60;;
31746;SDS011;18319;48.974;8.462;2023-05-10T13:53:42;3.40;;;0.80;;
31746;SDS011;18319;48.974;8.462;2023-05-10T13:56:10;7.45;;;1.70;;
31746;SDS011;18319;48.974;8.462;2023-05-10T13:58:37;2.35;;;0.40;;
31746;SDS011;18319;48.974;8.462;2023-05-10T14:01:03;0.60;;;0.50;;
31746;SDS011;18319;48.974;8.462;2023-05-10T14:03:30;1.90;;;0.40;;
31746;SDS011;18319;48.974;8.462;2023-05-10T14:05:57;1.30;;;0.50;;
31746;SDS011;18319;48.974;8.462;2023-05-10T14:08:24;0.30;;;0.30;;
31746;SDS011;18319;48.974;8.462;2023-05-10T14:10:52;1.40;;;0.50;;
31746;SDS011;18319;48.974;8.462;2023-05-10T14:13:22;0.22;;;0.22;;
31746;SDS011;18319;48.974;8.462;2023-05-10T14:15:49;3.78;;;0.88;;
31746;SDS011;18319;48.974;8.462;2023-05-10T14:18:16;0.90;;;0.43;;
31746;SDS011;18319;48.974;8.462;2023-05-10T14:20:43;1.45;;;0.50;;
31746;SDS011;18319;48.974;8.462;2023-05-10T14:23:10;1.20;;;0.40;;
31746;SDS011;18319;48.974;8.462;2023-05-10T14:25:37;0.57;;;0.47;;
31746;SDS011;18319;48.974;8.462;2023-05-10T14:28:04;1.20;;;0.70;;
31746;SDS011;18319;48.974;8.462;2023-05-10T14:30:32;1.52;;;0.47;;
31746;SDS011;18319;48.974;8.462;2023-05-10T14:32:59;0.80;;;0.73;;
31746;SDS011;18319;48.974;8.462;2023-05-10T14:35:26;1.10;;;0.50;;
31746;SDS011;18319;48.974;8.462;2023-05-10T14:37:53;0.30;;;0.30;;
31746;SDS011;18319;48.974;8.462;2023-05-10T14:40:20;0.82;;;0.40;;
31746;SDS011;18319;48.974;8.462;2023-05-10T14:42:47;1.20;;;0.40;;
31746;SDS011;18319;48.974;8.462;2023-05-10T14:45:13;0.77;;;0.30;;
31746;SDS011;18319;48.974;8.462;2023-05-10T14:47:42;0.60;;;0.40;;
31746;SDS011;18319;48.974;8.462;2023-05-10T14:50:09;0.52;;;0.52;;
31746;SDS011;18319;48.974;8.462;2023-05-10T14:52:36;3.22;;;0.40;;
31746;SDS011;18319;48.974;8.462;2023-05-10T14:55:03;0.50;;;0.50;;